Latest Weather Observations for Falls Creek

IDV60801

Issued at 10:31 pm EST Tuesday 30 June 2015 (issued every 30 minutes, with the page automatically refreshed every 10 minutes)

About weather observations | Map of weather stations | Latest weather observations for VIC | Other Formats
Station Details ID: 083084 Name: FALLS CREEK Lat: -36.87 Lon: 147.28 Height: 1765.0 m
Data from the previous 72 hours. | See also: Recent months at Falls Creek
Date/Time
EST
Temp
°C
App
Temp
°C
Dew
Point
Rel
Hum
%
Delta-T
°C
Wind Press
QNH
hPa
Press
MSL
hPa
Rain
since 9 am
mm
Dir
 
Spd
km/h
Gust
km/h
Spd
kts
Gust
kts
30/10:30pm -2.2 -6.7 -3.0 94 0.2 SSE 11 17 6 9 1024.6 1026.5 0.0
30/10:00pm -2.0 -6.1 -3.0 93 0.3 SSE 9 15 5 8 1024.7 1026.6 0.0
30/09:30pm -1.9 -6.7 -2.9 93 0.3 S 13 19 7 10 1024.6 1026.5 0.0
30/09:00pm -1.7 -6.1 -2.1 97 0.1 S 11 15 6 8 1024.6 1026.5 0.0
30/08:30pm -1.5 -5.4 -1.6 99 0.0 SSE 9 15 5 8 1024.5 1026.3 0.0
30/08:00pm -1.3 -5.2 -1.4 99 0.0 SSE 9 15 5 8 1024.6 1026.5 0.0
30/07:30pm -1.1 -5.4 -1.4 98 0.1 SSE 11 15 6 8 1024.5 1026.3 0.0
30/07:00pm -0.9 -4.4 -1.0 99 0.0 SSE 7 13 4 7 1024.5 1026.3 0.0
30/06:30pm -0.8 -4.6 -0.9 99 0.0 SE 9 13 5 7 1024.3 1026.1 0.0
30/06:00pm -0.6 -4.0 -0.7 99 0.0 SE 7 11 4 6 1024.3 1026.1 0.0
30/05:30pm -0.4 -3.8 -0.5 99 0.0 ESE 7 11 4 6 1024.0 1025.8 0.0
30/05:00pm -0.3 -4.1 -0.6 98 0.1 SE 9 11 5 6 1023.8 1025.6 0.0
30/04:30pm 0.1 -3.6 -0.3 97 0.2 ESE 9 15 5 8 1023.6 1025.4 0.0
30/04:00pm 0.0 -2.4 -0.1 99 0.0 E 2 7 1 4 1023.4 1025.2 0.0
30/03:30pm 0.1 -2.3 0.0 99 0.0 NNW 2 6 1 3 1023.4 1025.2 0.0
30/03:00pm 0.5 -1.9 -0.1 96 0.2 NE 2 6 1 3 1023.2 1025.0 0.0
30/02:30pm 0.6 -2.5 0.2 97 0.2 NE 6 7 3 4 1023.1 1024.9 0.0
30/02:00pm 1.0 -2.3 -0.1 92 0.4 N 7 11 4 6 1023.1 1024.9 0.0
30/01:30pm 1.8 -1.5 -0.1 87 0.8 NNE 7 15 4 8 1023.2 1025.0 0.0
30/01:00pm 2.1 -2.0 -0.5 83 1.1 N 11 15 6 8 1023.6 1025.4 0.0
30/12:30pm 2.2 -1.6 -0.9 80 1.3 N 9 15 5 8 1024.0 1025.8 0.0
30/12:00pm 0.8 -2.8 -1.8 83 1.1 NW 7 15 4 8 1024.4 1026.2 0.0
30/11:30am 1.6 -2.4 -2.2 76 1.5 N 9 13 5 7 1024.9 1026.7 0.0
30/11:00am 1.1 -2.9 -2.6 76 1.5 NW 9 17 5 9 1025.2 1027.1 0.0
30/10:30am 1.3 -3.0 -1.3 83 1.0 NNW 11 19 6 10 1025.3 1027.2 0.0
30/10:00am 0.4 -3.6 -2.1 83 1.0 NNW 9 13 5 7 1025.3 1027.2 0.0
30/09:30am -0.9 -5.5 -1.3 97 0.1 N 13 17 7 9 1025.3 1027.2 0.0
30/09:00am -1.3 -5.9 -1.4 99 0.0 NNW 13 19 7 10 1025.2 1027.1 0.0
30/08:30am -1.2 -6.2 -1.5 98 0.1 NNW 15 20 8 11 1025.0 1026.8 0.0
30/08:00am -1.2 -7.1 -1.9 95 0.2 NNW 19 22 10 12 1025.1 1027.0 0.0
30/07:30am -1.4 -7.3 -2.0 96 0.2 NNW 19 24 10 13 1025.2 1027.1 0.0
30/07:00am -1.2 -7.2 -1.6 97 0.1 NNW 20 30 11 16 1025.2 1027.1 0.0
30/06:30am -1.2 -7.2 -1.3 99 0.0 NNW 20 28 11 15 1025.1 1027.0 0.0
30/06:00am -1.2 -8.3 -1.6 97 0.1 NNW 26 33 14 18 1025.2 1027.1 0.0
30/05:30am -1.1 -8.6 -1.2 99 0.0 NNW 28 37 15 20 1025.0 1026.8 0.0
30/05:00am -1.1 -8.6 -1.2 99 0.0 NNW 28 37 15 20 1025.0 1026.8 0.0
30/04:30am -1.4 -8.9 -1.7 98 0.0 NNW 28 37 15 20 1024.9 1026.7 0.0
30/04:00am -1.8 -8.7 -2.4 96 0.1 NNW 24 35 13 19 1025.1 1027.0 0.0
30/03:30am -1.4 -7.1 -3.9 83 0.8 NNW 17 22 9 12 1025.3 1027.2 0.0
30/03:00am 0.6 -5.7 -5.6 63 2.2 NNW 19 24 10 13 1025.7 1027.6 0.0
30/02:30am 0.9 -4.6 -5.1 64 2.2 NNW 15 19 8 10 1026.1 1028.0 0.0
30/02:00am 1.3 -3.9 -6.0 58 2.6 NNW 13 17 7 9 1026.3 1028.2 0.0
30/01:30am 1.5 -4.1 -6.1 57 2.8 NNW 15 19 8 10 1026.4 1028.3 0.0
30/01:00am 1.1 -4.3 -4.1 68 2.0 NNW 15 19 8 10 1026.5 1028.5 0.0
30/12:30am 0.1 -4.9 -4.3 72 1.6 NW 13 19 7 10 1027.1 1029.1 0.0
30/12:00am -0.2 -5.5 -3.2 80 1.1 WNW 15 20 8 11 1027.4 1029.3 0.0
 
Date/Time
EST
Temp
°C
App
Temp
°C
Dew
Point
Rel
Hum
%
Delta-T
°C
Wind Press
QNH
hPa
Press
MSL
hPa
Rain
since 9 am
mm
Dir
 
Spd
km/h
Gust
km/h
Spd
kts
Gust
kts
29/11:30pm 1.2 -3.7 -3.8 69 1.9 N 13 17 7 9 1027.7 1029.7 0.0
29/11:00pm 1.7 -2.0 -4.2 65 2.3 NNW 6 7 3 4 1027.7 1029.7 0.0
29/10:30pm 2.3 -2.7 -4.4 61 2.6 NE 13 17 7 9 1028.0 1029.9 0.0
29/10:00pm 2.0 -3.8 -4.5 62 2.5 ENE 17 20 9 11 1028.2 1030.2 0.0
29/09:30pm 2.0 -3.9 -5.2 59 2.7 E 17 19 9 10 1028.7 1030.7 0.0
29/09:00pm 2.3 -2.8 -5.1 58 2.8 ESE 13 17 7 9 1028.8 1030.8 0.0
29/08:30pm 2.4 -3.2 -6.2 53 3.2 ESE 15 19 8 10 1028.9 1030.9 0.0
29/08:00pm 2.3 -3.0 -6.8 51 3.3 E 13 17 7 9 1029.1 1031.2 0.0
29/07:30pm 2.4 -3.0 -8.0 46 3.7 E 13 17 7 9 1029.4 1031.4 0.0
29/07:00pm 2.4 -3.5 -9.8 40 4.1 E 15 17 8 9 1029.3 1031.3 0.0
29/06:30pm 2.9 -1.0 -6.2 51 3.4 ESE 6 11 3 6 1029.3 1031.3 0.0
29/06:00pm 3.5 -1.2 -9.5 38 4.5 ESE 9 13 5 7 1029.1 1031.2 0.0
29/05:30pm 4.1 -0.7 -10.3 34 5.0 ESE 9 13 5 7 1029.3 1031.3 0.0
29/05:00pm 4.9 0.0 -11.2 30 5.5 E 9 11 5 6 1029.3 1031.3 0.0
29/04:30pm 7.1 2.6 -6.6 37 5.1 E 9 11 5 6 1029.3 1031.3 0.0
29/04:00pm 7.5 3.6 -4.6 42 4.7 ESE 7 9 4 5 1029.3 1031.3 0.0
29/03:30pm 8.0 4.1 -4.8 40 5.0 ENE 7 9 4 5 1029.4 1031.4 0.0
29/03:00pm 7.1 3.8 0.1 61 3.0 N 7 11 4 6 1029.5 1031.6 0.0
29/02:30pm 7.4 3.6 -0.8 56 3.5 NNE 9 13 5 7 1029.6 1031.7 0.0
29/02:00pm 7.3 3.8 -1.6 53 3.7 NNE 7 11 4 6 1029.6 1031.7 0.0
29/01:30pm 9.1 5.3 -3.8 40 5.3 N 7 11 4 6 1029.7 1031.8 0.0
29/01:00pm 9.4 5.3 -6.8 31 6.1 N 7 11 4 6 1030.1 1032.2 0.0
29/12:30pm 9.1 4.9 -7.5 30 6.2 NNE 7 13 4 7 1030.6 1032.7 0.0
29/12:00pm 9.2 5.4 -5.8 34 5.8 NNE 6 9 3 5 1030.9 1033.0 0.0
29/11:30am 9.7 5.6 -6.6 31 6.3 NNE 7 11 4 6 1031.2 1033.3 0.0
29/11:00am 9.4 4.9 -11.2 22 7.0 ENE 7 11 4 6 1031.6 1033.8 0.0
29/10:30am 6.9 2.6 -11.2 26 6.0 SE 6 9 3 5 1031.9 1034.0 0.0
29/10:00am 6.9 2.4 -11.7 25 6.1 ESE 7 9 4 5 1032.1 1034.3 0.0
29/09:30am 5.9 1.0 -11.6 27 5.7 ESE 9 13 5 7 1032.0 1034.2 0.0
29/09:00am 5.4 0.1 -12.1 27 5.8 ESE 11 13 6 7 1032.0 1034.2 0.0
29/08:30am 4.6 -0.7 -12.3 28 5.6 ESE 11 11 6 6 1032.0 1034.2 0.0
29/08:00am 3.8 -1.1 -11.7 31 5.1 SE 9 11 5 6 1031.8 1033.9 0.0
29/07:30am 3.2 -1.7 -11.9 32 4.9 SE 9 11 5 6 1031.6 1033.8 0.0
29/07:00am 3.2 -1.2 -12.3 31 4.9 ESE 6 7 3 4 1031.6 1033.8 0.0
29/06:30am 3.3 -1.2 -12.2 31 5.0 ESE 7 7 4 4 1031.3 1033.4 0.0
29/06:00am 3.6 -0.8 -12.3 30 5.1 E 6 7 3 4 1031.3 1033.4 0.0
29/05:30am 3.4 -0.9 -12.1 31 5.0 E 6 7 3 4 1031.3 1033.4 0.0
29/05:00am 3.9 -0.5 -12.9 28 5.3 ENE 6 7 3 4 1031.3 1033.4 0.0
29/04:30am 4.2 -0.2 -12.7 28 5.5 ESE 6 6 3 3 1031.3 1033.4 0.0
29/04:00am 4.3 -0.1 -12.6 28 5.5 ESE 6 7 3 4 1031.3 1033.4 0.0
29/03:30am 4.5 0.1 -12.4 28 5.6 ESE 6 7 3 4 1031.4 1033.5 0.0
29/03:00am 4.5 0.0 -12.4 28 5.5 SE 7 7 4 4 1031.5 1033.7 0.0
29/02:30am 4.8 0.2 -12.6 27 5.7 SE 7 9 4 5 1031.5 1033.7 0.0
29/02:00am 4.8 -0.2 -13.0 26 5.7 SE 9 11 5 6 1031.5 1033.7 0.0
29/01:30am 4.6 -0.4 -13.7 25 5.8 SE 9 11 5 6 1031.6 1033.8 0.0
29/01:00am 4.3 -0.7 -14.4 24 5.8 SSE 9 11 5 6 1031.5 1033.7 0.0
29/12:30am 3.8 -1.7 -14.9 24 5.7 SSE 11 15 6 8 1031.4 1033.5 0.0
29/12:00am 3.6 -2.6 -14.1 26 5.4 SSE 15 17 8 9 1031.4 1033.5 0.0
 
Date/Time
EST
Temp
°C
App
Temp
°C
Dew
Point
Rel
Hum
%
Delta-T
°C
Wind Press
QNH
hPa
Press
MSL
hPa
Rain
since 9 am
mm
Dir
 
Spd
km/h
Gust
km/h
Spd
kts
Gust
kts
28/11:30pm 3.6 -2.5 -12.7 29 5.2 SSE 15 17 8 9 1031.6 1033.8 0.0
28/11:00pm 3.6 -2.4 -11.5 32 4.9 SSE 15 17 8 9 1031.8 1033.9 0.0
28/10:30pm 2.4 -3.9 -10.4 38 4.2 SSE 17 19 9 10 1031.9 1034.0 0.0
28/10:00pm 2.2 -4.2 -11.0 37 4.2 SSE 17 19 9 10 1031.9 1034.0 0.0
28/09:30pm 2.3 -4.1 -11.6 35 4.5 SSE 17 20 9 11 1031.9 1034.0 0.0
28/09:00pm 2.2 -3.8 -11.0 37 4.2 S 15 17 8 9 1032.0 1034.2 0.0
28/08:30pm 2.0 -4.1 -7.8 48 3.5 SSE 17 20 9 11 1032.1 1034.3 0.0
28/08:00pm 2.3 -3.9 -4.6 60 2.7 SSE 19 22 10 12 1032.1 1034.3 0.0
28/07:30pm 1.7 -4.4 -2.1 76 1.5 S 20 24 11 13 1031.9 1034.0 0.0
28/07:00pm 1.7 -4.1 -1.2 81 1.2 SSE 19 22 10 12 1031.6 1033.8 0.0
28/06:30pm 1.1 -4.9 -1.8 81 1.2 S 20 24 11 13 1031.3 1033.4 0.0
28/06:00pm 1.5 -4.2 -3.4 70 1.9 SSE 17 20 9 11 1031.2 1033.3 0.0
28/05:30pm 2.0 -2.8 -2.9 70 1.9 SSE 13 15 7 8 1030.9 1033.0 0.0
28/05:00pm 2.8 -2.6 -4.6 58 2.7 SSE 15 17 8 9 1030.9 1033.0 0.0
28/04:30pm 4.1 -0.6 -4.6 53 3.3 SSE 11 15 6 8 1030.9 1033.0 0.0
28/04:00pm 6.0 1.8 -3.6 50 3.8 SE 9 13 5 7 1030.9 1033.0 0.0
28/03:30pm 7.6 3.9 -4.8 41 4.9 ESE 6 7 3 4 1030.8 1032.9 0.0
28/03:00pm 7.7 4.0 -4.1 43 4.7 ENE 6 9 3 5 1030.7 1032.8 0.0
28/02:30pm 8.8 5.2 -3.7 41 5.1 NE 6 11 3 6 1030.6 1032.7 0.0
28/02:00pm 8.2 4.5 -4.6 40 5.0 NNE 6 11 3 6 1030.6 1032.7 0.0
28/01:30pm 8.9 5.0 -5.0 37 5.5 NNE 7 13 4 7 1030.6 1032.7 0.0
28/01:00pm 8.4 4.2 -8.1 30 6.0 N 7 11 4 6 1030.8 1032.9 0.0
28/12:30pm 8.4 4.2 -8.1 30 6.0 NNE 7 13 4 7 1031.2 1033.3 0.0
28/12:00pm 9.4 5.2 -9.6 25 6.7 NNE 6 11 3 6 1031.4 1033.5 0.0
28/11:30am 8.7 4.2 -11.8 22 6.9 NNE 7 13 4 7 1031.6 1033.8 0.0
28/11:00am 8.4 3.9 -11.0 24 6.6 NNE 7 11 4 6 1031.9 1034.0 0.0
28/10:30am 8.0 3.2 -17.8 14 7.5 NW 7 20 4 11 1031.9 1034.0 0.0
28/10:00am 7.5 2.5 -22.1 10 8.1 WNW 7 15 4 8 1031.6 1033.8 0.0
28/09:30am 5.8 0.5 -18.8 15 7.1 WNW 9 11 5 6 1031.5 1033.7 0.0
28/09:29am 5.7 0.4 -18.9 15 7.0 WNW 9 11 5 6 1031.5 1033.7 0.0
28/09:00am 0.7 -3.0 -3.2 75 1.5 S 7 11 4 6 1031.3 1033.4 0.0
28/08:30am 0.1 -3.4 -2.6 82 1.0 S 6 11 3 6 1031.2 1033.3 0.0
28/08:00am -0.5 -4.1 -2.4 87 0.7 S 7 13 4 7 1031.0 1033.2 0.0
28/07:30am -0.4 -4.2 -3.8 78 1.2 SSE 7 11 4 6 1030.8 1032.9 0.0
28/07:00am -0.7 -5.7 -4.6 75 1.4 SSE 13 15 7 8 1030.7 1032.8 0.0
28/06:30am 0.1 -4.6 -5.3 67 1.9 SSE 11 15 6 8 1030.3 1032.4 0.0
28/06:00am 1.1 -3.7 -11.0 40 3.8 SSE 9 9 5 5 1030.1 1032.2 0.0
28/05:30am 2.3 -2.4 -20.2 17 5.8 S 6 7 3 4 1029.9 1031.9 0.0
28/05:00am 4.2 -1.6 -25.8 9 7.0 SSW 11 13 6 7 1029.6 1031.7 0.0
28/04:30am 3.3 -3.6 -24.3 11 6.5 SSW 17 19 9 10 1029.5 1031.6 0.0
28/04:00am 3.8 -3.2 -25.0 10 6.7 SW 17 19 9 10 1029.5 1031.6 0.0
28/03:30am 4.2 -2.0 -24.7 10 6.9 SSW 13 15 7 8 1029.7 1031.8 0.0
28/03:00am 4.7 -1.5 -25.4 9 7.1 SW 13 15 7 8 1030.0 1032.1 0.0
28/02:30am 4.7 -1.1 -24.3 10 7.1 SW 11 13 6 7 1030.1 1032.2 0.0
28/02:00am 5.3 -1.7 -25.0 9 7.4 SW 17 20 9 11 1029.9 1031.9 0.0
28/01:30am 5.5 -1.5 -24.8 9 7.5 WSW 17 19 9 10 1029.9 1031.9 0.0
28/01:00am 5.4 -1.1 -20.8 13 7.0 SW 15 19 8 10 1030.0 1032.1 0.0
28/12:30am 5.1 -1.6 -17.2 18 6.6 SW 17 20 9 11 1030.1 1032.2 0.0
28/12:00am 5.1 -2.0 -16.6 19 6.4 SW 19 22 10 12 1030.2 1032.3 0.0
 
Date/Time
EST
Temp
°C
App
Temp
°C
Dew
Point
Rel
Hum
%
Delta-T
°C
Wind Press
QNH
hPa
Press
MSL
hPa
Rain
since 9 am
mm
Dir
 
Spd
km/h
Gust
km/h
Spd
kts
Gust
kts
27/11:30pm 4.8 -2.2 -15.6 21 6.2 SW 19 20 10 11 1030.5 1032.5 0.0
27/11:00pm 4.7 -2.5 -15.7 21 6.1 SW 20 26 11 14 1030.3 1032.4 0.0

Other Formats:

Comma delimited format used in spreadsheet applications
http://www.bom.gov.au/fwo/IDV60801/IDV60801.94903.axf

JavaScript Object Notation format (JSON) in row-major order
http://www.bom.gov.au/fwo/IDV60801/IDV60801.94903.json